Time;durP1;ratioP1;P1;durP2;ratioP2;P2;SDS_P1;SDS_P2;PMS_P1;PMS_P2;Temp;Humidity;BMP_temperature;BMP_pressure;BME280_temperature;BME280_humidity;BME280_pressure;Samples;Min_cycle;Max_cycle;Signal;HPM_P1;HPM_P2
2023/07/17 04:31:29;;;;;;;7.78;2.15;;;14.90;77.70;;;;;;5410947;23;20083;-87
2023/07/17 04:33:55;;;;;;;6.32;2.05;;;14.90;78.10;;;;;;4938876;29;20031;-86
2023/07/17 04:36:21;;;;;;;7.78;1.92;;;14.90;77.70;;;;;;4940268;29;20019;-86
2023/07/17 04:38:46;;;;;;;5.57;1.63;;;14.90;78.10;;;;;;4958205;29;20035;-86
2023/07/17 04:41:12;;;;;;;8.98;2.10;;;14.90;78.10;;;;;;4941516;29;20027;-85
2023/07/17 04:43:38;;;;;;;6.65;1.80;;;14.90;78.10;;;;;;4958316;29;20094;-86
2023/07/17 04:46:03;;;;;;;5.93;1.70;;;14.80;78.40;;;;;;4941325;29;20079;-86
2023/07/17 04:48:30;;;;;;;11.60;2.03;;;14.80;78.50;;;;;;4940202;29;20421;-77
2023/07/17 04:50:56;;;;;;;6.45;2.38;;;14.80;78.50;;;;;;4958111;29;20086;-76
2023/07/17 04:53:21;;;;;;;9.18;2.60;;;14.90;78.40;;;;;;4958382;29;20118;-77
2023/07/17 04:55:48;;;;;;;7.25;2.20;;;14.90;78.20;;;;;;4960087;28;20037;-75
2023/07/17 04:58:14;;;;;;;8.00;1.92;;;15.00;78.20;;;;;;4975426;28;20031;-76
2023/07/17 05:00:39;;;;;;;7.60;2.30;;;15.00;78.10;;;;;;4977596;28;20082;-76
2023/07/17 05:03:05;;;;;;;6.43;2.17;;;15.00;77.90;;;;;;4947106;28;20504;-76
2023/07/17 05:05:31;;;;;;;6.53;2.45;;;15.10;78.10;;;;;;4981311;28;20022;-76
2023/07/17 05:07:57;;;;;;;7.45;2.22;;;15.10;77.80;;;;;;4964280;28;20031;-75
2023/07/17 05:10:22;;;;;;;8.55;2.10;;;15.10;78.10;;;;;;4954447;29;20023;-78
2023/07/17 05:12:48;;;;;;;7.97;2.00;;;15.00;78.30;;;;;;4950699;28;20027;-76
2023/07/17 05:15:14;;;;;;;4.97;1.65;;;15.00;78.60;;;;;;4964420;28;20035;-75
2023/07/17 05:17:39;;;;;;;8.82;2.13;;;15.10;78.40;;;;;;4981344;28;20035;-76
2023/07/17 05:20:06;;;;;;;7.13;2.20;;;15.10;78.40;;;;;;4981572;28;20058;-79
2023/07/17 05:22:32;;;;;;;7.50;1.83;;;15.10;78.10;;;;;;4981269;28;20033;-77
2023/07/17 05:24:58;;;;;;;7.63;2.55;;;15.20;78.30;;;;;;4980975;28;20027;-77
2023/07/17 05:27:24;;;;;;;7.07;2.40;;;15.20;78.50;;;;;;4981214;28;20034;-77
2023/07/17 05:29:50;;;;;;;6.30;1.95;;;15.20;78.40;;;;;;4981213;28;20086;-77
2023/07/17 05:32:15;;;;;;;8.73;2.17;;;15.20;78.10;;;;;;4980928;28;20042;-77
2023/07/17 05:34:41;;;;;;;9.50;2.20;;;15.20;78.20;;;;;;4981019;28;20027;-77
2023/07/17 05:37:08;;;;;;;7.30;2.15;;;15.20;78.50;;;;;;4983514;28;20031;-76
2023/07/17 05:39:33;;;;;;;13.30;2.22;;;15.20;78.80;;;;;;4963637;28;20040;-77
2023/07/17 05:41:59;;;;;;;6.38;2.35;;;15.20;78.90;;;;;;4966062;28;20038;-76
2023/07/17 05:44:25;;;;;;;7.70;3.10;;;15.20;79.00;;;;;;4977799;28;20038;-77
2023/07/17 05:46:50;;;;;;;8.05;2.65;;;15.20;78.80;;;;;;4963789;28;20046;-77
2023/07/17 05:49:16;;;;;;;8.77;2.45;;;15.20;79.00;;;;;;4962829;28;20030;-79
2023/07/17 05:51:42;;;;;;;12.10;2.58;;;15.20;78.90;;;;;;4964733;28;20031;-76
2023/07/17 05:54:07;;;;;;;9.63;2.42;;;15.30;78.90;;;;;;4979704;28;20110;-77
2023/07/17 05:56:33;;;;;;;10.40;2.30;;;15.30;79.30;;;;;;4978904;28;20037;-77
2023/07/17 05:58:58;;;;;;;8.82;2.05;;;15.30;79.20;;;;;;4980353;28;20085;-78
2023/07/17 06:01:24;;;;;;;7.72;2.30;;;15.40;79.50;;;;;;4998028;28;20038;-76
2023/07/17 06:03:50;;;;;;;6.95;2.25;;;15.50;79.20;;;;;;4989138;28;20031;-75
2023/07/17 06:06:15;;;;;;;5.72;2.33;;;15.60;79.40;;;;;;4980395;28;20037;-76
2023/07/17 06:08:41;;;;;;;7.80;2.38;;;15.60;79.20;;;;;;4992002;28;20526;-75
2023/07/17 06:11:06;;;;;;;6.22;2.67;;;15.60;79.50;;;;;;4989606;28;20030;-75
2023/07/17 06:13:32;;;;;;;8.52;2.70;;;15.60;79.50;;;;;;4999991;28;20470;-76
2023/07/17 06:15:58;;;;;;;8.25;2.75;;;15.60;79.50;;;;;;4968817;28;20035;-75
2023/07/17 06:18:24;;;;;;;13.70;3.33;;;15.70;79.60;;;;;;4979868;28;20046;-76
2023/07/17 06:20:50;;;;;;;7.88;2.45;;;15.70;79.20;;;;;;4979722;28;20035;-76
2023/07/17 06:23:15;;;;;;;6.25;2.60;;;15.80;79.70;;;;;;4962963;28;20516;-76
2023/07/17 06:25:41;;;;;;;8.73;2.60;;;15.80;79.40;;;;;;4980113;28;20035;-76
2023/07/17 06:28:08;;;;;;;9.57;2.75;;;15.90;79.60;;;;;;4980824;28;20069;-76
2023/07/17 06:30:34;;;;;;;10.73;2.80;;;15.90;79.80;;;;;;4995732;28;20834;-76
2023/07/17 06:32:59;;;;;;;7.88;2.28;;;16.00;79.50;;;;;;4992197;28;20031;-76
2023/07/17 06:35:25;;;;;;;6.05;2.20;;;16.00;79.90;;;;;;4979823;28;20031;-76
2023/07/17 06:37:52;;;;;;;13.05;2.60;;;16.00;80.10;;;;;;4983949;28;20034;-76
2023/07/17 06:40:17;;;;;;;12.45;3.13;;;16.10;80.10;;;;;;4999218;28;20062;-76
2023/07/17 06:42:43;;;;;;;8.23;2.40;;;16.10;80.20;;;;;;4985055;28;20031;-76
2023/07/17 06:45:09;;;;;;;8.07;2.45;;;16.10;80.20;;;;;;4982072;28;20026;-75
2023/07/17 06:47:34;;;;;;;10.80;2.97;;;16.20;80.40;;;;;;4979241;28;20030;-76
2023/07/17 06:50:00;;;;;;;6.43;2.78;;;16.30;80.40;;;;;;4979550;28;20054;-75
2023/07/17 06:52:26;;;;;;;9.20;2.70;;;16.30;80.50;;;;;;4962392;28;20019;-76
2023/07/17 06:54:51;;;;;;;10.50;3.13;;;16.40;80.40;;;;;;4979612;28;20078;-76
2023/07/17 06:57:17;;;;;;;9.85;2.67;;;16.50;80.40;;;;;;4979127;28;20077;-76
2023/07/17 06:59:43;;;;;;;9.48;2.53;;;16.70;80.20;;;;;;4998838;28;20066;-76
2023/07/17 07:02:09;;;;;;;8.43;2.00;;;16.90;79.80;;;;;;4998609;28;20026;-76
2023/07/17 07:04:34;;;;;;;14.18;3.30;;;17.10;79.40;;;;;;4983431;28;20026;-76
2023/07/17 07:07:00;;;;;;;8.15;2.47;;;17.30;78.60;;;;;;4980816;28;20027;-76
2023/07/17 07:09:26;;;;;;;8.15;2.95;;;17.30;78.30;;;;;;4979005;28;20031;-76
2023/07/17 07:11:52;;;;;;;7.47;2.95;;;17.50;77.80;;;;;;4978975;28;20030;-75
2023/07/17 07:14:17;;;;;;;8.73;2.25;;;17.60;77.60;;;;;;4979371;28;20462;-76
2023/07/17 07:16:43;;;;;;;8.55;2.58;;;17.80;77.30;;;;;;4979423;28;20090;-76
2023/07/17 07:19:09;;;;;;;5.97;2.30;;;18.00;76.30;;;;;;4982612;28;20034;-76
2023/07/17 07:21:34;;;;;;;12.02;2.70;;;18.00;76.10;;;;;;4998035;28;20053;-76
2023/07/17 07:24:02;;;;;;;9.25;2.95;;;18.10;76.40;;;;;;4998368;28;20030;-77
2023/07/17 07:26:29;;;;;;;7.45;2.20;;;18.30;76.20;;;;;;4980451;28;20484;-77
2023/07/17 07:28:54;;;;;;;7.90;2.65;;;18.50;75.30;;;;;;4977218;28;20631;-76
2023/07/17 07:31:20;;;;;;;8.65;2.35;;;18.90;73.90;;;;;;4980558;28;20046;-77
2023/07/17 07:33:46;;;;;;;9.77;2.63;;;19.50;72.10;;;;;;4985012;28;20058;-77
2023/07/17 07:36:11;;;;;;;10.60;2.38;;;19.50;71.00;;;;;;4978689;28;20062;-77
2023/07/17 07:38:37;;;;;;;7.18;2.40;;;19.30;70.00;;;;;;4978232;28;20066;-77
2023/07/17 07:41:02;;;;;;;7.32;2.55;;;19.80;69.20;;;;;;4981626;28;20101;-77
2023/07/17 07:43:28;;;;;;;9.35;2.88;;;21.60;63.80;;;;;;4978600;28;20460;-76
2023/07/17 07:45:54;;;;;;;7.88;2.30;;;21.40;62.70;;;;;;4986069;28;20078;-77
2023/07/17 07:48:19;;;;;;;9.27;2.90;;;22.40;60.70;;;;;;4978992;28;20105;-78
2023/07/17 07:50:46;;;;;;;6.65;2.55;;;22.00;60.30;;;;;;4986703;28;20114;-78
2023/07/17 07:53:11;;;;;;;7.68;2.58;;;24.10;57.00;;;;;;4971801;28;20023;-76
2023/07/17 07:55:37;;;;;;;6.18;2.55;;;23.30;56.90;;;;;;4991027;28;20026;-81
2023/07/17 07:58:03;;;;;;;5.75;2.70;;;23.50;56.10;;;;;;4970064;28;20032;-77
2023/07/17 08:00:28;;;;;;;5.97;2.38;;;25.40;53.30;;;;;;4982976;28;20034;-73
2023/07/17 08:02:54;;;;;;;7.00;2.40;;;27.50;48.30;;;;;;4982593;28;20029;-74
2023/07/17 08:05:22;;;;;;;7.93;2.50;;;28.20;43.40;;;;;;4967725;28;20109;-73
2023/07/17 08:07:47;;;;;;;8.05;2.33;;;28.60;44.10;;;;;;4984010;28;20018;-73
2023/07/17 08:10:13;;;;;;;5.72;2.70;;;28.00;43.00;;;;;;4987422;28;20018;-74
2023/07/17 08:12:39;;;;;;;12.10;3.17;;;27.80;45.10;;;;;;4962228;28;20023;-76
2023/07/17 08:15:07;;;;;;;7.32;2.90;;;28.90;42.80;;;;;;4967925;28;20037;-74
2023/07/17 08:17:36;;;;;;;6.38;2.80;;;30.50;40.20;;;;;;4986844;28;20023;-74
2023/07/17 08:20:04;;;;;;;7.15;2.67;;;31.80;37.80;;;;;;4985848;28;20127;-75
2023/07/17 08:22:29;;;;;;;6.40;2.78;;;32.50;36.60;;;;;;4981687;28;20042;-76
2023/07/17 08:24:55;;;;;;;5.55;3.00;;;32.80;35.70;;;;;;4984356;28;20022;-75
2023/07/17 08:27:21;;;;;;;5.10;2.78;;;33.70;34.10;;;;;;4987285;28;20022;-76
2023/07/17 08:29:46;;;;;;;5.75;3.20;;;34.30;33.50;;;;;;4963668;28;20026;-75
2023/07/17 08:32:12;;;;;;;7.38;3.28;;;33.90;33.30;;;;;;4982137;28;20042;-75
2023/07/17 08:34:38;;;;;;;7.30;3.20;;;34.30;32.60;;;;;;4984215;28;20074;-75
2023/07/17 08:37:03;;;;;;;7.25;3.05;;;34.40;31.40;;;;;;4969096;28;20034;-75
2023/07/17 08:39:29;;;;;;;5.95;3.00;;;34.90;31.50;;;;;;4967492;28;20018;-75
2023/07/17 08:41:55;;;;;;;8.27;2.90;;;35.20;31.60;;;;;;4966807;28;20031;-75
2023/07/17 08:44:21;;;;;;;6.03;2.65;;;34.90;30.60;;;;;;4986244;28;20101;-74
2023/07/17 08:46:50;;;;;;;5.25;2.90;;;32.90;32.50;;;;;;4987734;28;20052;-74
2023/07/17 08:49:18;;;;;;;7.50;3.03;;;31.80;34.80;;;;;;4987287;28;20497;-75
2023/07/17 08:51:49;;;;;;;5.13;2.60;;;32.40;33.90;;;;;;4966945;28;20046;-75
2023/07/17 08:54:15;;;;;;;5.95;2.72;;;32.40;34.90;;;;;;4985180;28;20011;-74
2023/07/17 08:56:42;;;;;;;6.00;2.40;;;32.00;34.20;;;;;;4987091;28;20022;-76
2023/07/17 08:59:09;;;;;;;7.95;2.75;;;31.30;35.60;;;;;;4984939;28;20109;-76
2023/07/17 09:01:36;;;;;;;6.30;2.55;;;29.60;37.20;;;;;;4985212;28;20030;-76
2023/07/17 09:04:03;;;;;;;5.22;2.28;;;28.80;39.80;;;;;;4982012;28;20496;-76
2023/07/17 09:06:29;;;;;;;5.57;2.38;;;28.10;41.20;;;;;;4986030;28;20074;-76
2023/07/17 09:08:55;;;;;;;7.07;2.53;;;27.70;41.80;;;;;;4986353;28;20034;-76
2023/07/17 09:11:21;;;;;;;6.68;2.80;;;27.30;42.80;;;;;;4982832;28;20023;-76
2023/07/17 09:13:49;;;;;;;6.22;2.20;;;26.70;43.40;;;;;;4987272;28;20156;-76
2023/07/17 09:16:18;;;;;;;5.55;2.38;;;26.20;44.20;;;;;;4983141;28;20031;-76
2023/07/17 09:18:44;;;;;;;6.32;2.20;;;25.80;45.60;;;;;;4987466;28;20046;-76
2023/07/17 09:21:15;;;;;;;5.93;2.10;;;25.70;45.90;;;;;;4968518;28;20409;-76
2023/07/17 09:23:46;;;;;;;6.20;2.50;;;25.30;46.70;;;;;;4985740;28;20022;-76
2023/07/17 09:26:19;;;;;;;6.25;2.53;;;25.30;47.20;;;;;;4986971;28;20049;-76
2023/07/17 09:28:56;;;;;;;5.25;1.88;;;25.10;46.60;;;;;;4984063;28;20473;-76
2023/07/17 09:31:27;;;;;;;4.47;2.03;;;25.10;45.90;;;;;;4970385;28;20039;-76
2023/07/17 09:33:54;;;;;;;5.43;2.17;;;25.70;45.10;;;;;;4986216;28;20077;-76
2023/07/17 09:36:21;;;;;;;4.28;1.80;;;25.80;44.90;;;;;;4985291;28;20070;-76
2023/07/17 09:38:55;;;;;;;6.07;2.20;;;25.70;45.40;;;;;;4968218;28;20031;-76
2023/07/17 09:41:25;;;;;;;6.93;2.35;;;25.30;45.80;;;;;;4986082;28;20034;-75
2023/07/17 09:44:00;;;;;;;4.38;2.17;;;24.90;46.80;;;;;;4988372;28;20042;-76
2023/07/17 09:46:27;;;;;;;7.85;2.90;;;24.60;48.10;;;;;;4989296;28;20031;-76
2023/07/17 09:48:54;;;;;;;5.57;2.45;;;24.30;49.00;;;;;;4988836;28;20573;-76
2023/07/17 09:51:20;;;;;;;5.60;2.00;;;24.20;49.60;;;;;;4988660;28;20500;-76
2023/07/17 09:53:47;;;;;;;5.18;2.25;;;24.70;49.50;;;;;;4990676;28;20054;-76
2023/07/17 09:56:15;;;;;;;6.72;2.83;;;24.70;49.10;;;;;;4972761;28;20049;-76
2023/07/17 09:58:46;;;;;;;6.28;2.72;;;24.40;48.00;;;;;;4988762;28;20015;-76
2023/07/17 10:01:17;;;;;;;5.97;2.55;;;24.20;49.80;;;;;;4989883;28;20064;-76
2023/07/17 10:03:50;;;;;;;4.90;2.22;;;24.00;50.20;;;;;;4985172;28;20023;-76
2023/07/17 10:06:19;;;;;;;6.20;2.42;;;23.90;50.60;;;;;;4988136;28;20041;-76
2023/07/17 10:08:50;;;;;;;5.57;2.28;;;25.40;49.10;;;;;;4987793;28;20023;-76
2023/07/17 10:11:17;;;;;;;7.97;2.22;;;25.00;48.10;;;;;;4972612;28;20034;-76
2023/07/17 10:13:47;;;;;;;5.53;2.17;;;24.90;48.70;;;;;;4990948;28;20022;-76
2023/07/17 10:16:19;;;;;;;6.28;2.25;;;24.60;48.60;;;;;;4987102;28;20037;-76
2023/07/17 10:18:50;;;;;;;5.00;2.20;;;24.30;48.70;;;;;;4989107;28;20025;-76
2023/07/17 10:21:17;;;;;;;6.78;2.75;;;24.00;50.40;;;;;;4971580;28;20042;-76
2023/07/17 10:23:44;;;;;;;4.47;2.08;;;24.30;49.80;;;;;;4971634;28;20106;-76
2023/07/17 10:26:12;;;;;;;6.47;2.20;;;25.90;47.80;;;;;;4971278;28;20042;-76
2023/07/17 10:28:40;;;;;;;7.47;2.40;;;26.30;45.90;;;;;;4972782;28;20025;-76
2023/07/17 10:31:21;;;;;;;5.28;1.92;;;26.20;43.60;;;;;;4989579;28;20047;-76
2023/07/17 10:34:13;;;;;;;4.88;2.00;;;26.00;45.20;;;;;;4967662;28;20432;-75
2023/07/17 10:36:43;;;;;;;5.30;1.70;;;25.70;44.00;;;;;;4962490;28;20142;-76
2023/07/17 10:39:23;;;;;;;6.78;2.15;;;26.30;45.50;;;;;;4971739;28;20294;-75
2023/07/17 10:41:52;;;;;;;6.30;2.20;;;26.70;44.70;;;;;;4989045;28;20027;-76
2023/07/17 10:44:19;;;;;;;4.40;1.65;;;26.60;44.40;;;;;;4988430;28;20026;-75
2023/07/17 10:46:46;;;;;;;4.10;2.13;;;26.00;43.50;;;;;;4967791;28;20038;-76
2023/07/17 10:49:14;;;;;;;3.40;1.80;;;25.80;44.00;;;;;;4983732;28;20023;-76
2023/07/17 10:51:47;;;;;;;4.72;1.80;;;25.70;44.80;;;;;;4987880;28;20031;-76
2023/07/17 10:54:14;;;;;;;4.88;2.08;;;26.00;44.90;;;;;;4987014;28;20019;-76
2023/07/17 10:56:45;;;;;;;4.50;2.05;;;26.00;44.40;;;;;;4972435;28;20022;-76
2023/07/17 10:59:11;;;;;;;7.43;1.95;;;26.00;43.10;;;;;;4986949;28;20109;-76
2023/07/17 11:01:37;;;;;;;4.63;1.88;;;25.80;43.40;;;;;;4979477;28;20058;-76
2023/07/17 11:04:07;;;;;;;6.28;2.38;;;25.80;44.80;;;;;;4986223;28;20026;-75
2023/07/17 11:06:33;;;;;;;3.90;1.73;;;25.60;45.40;;;;;;4987090;28;20147;-76
2023/07/17 11:08:59;;;;;;;4.82;1.80;;;25.60;45.20;;;;;;4983670;28;20123;-76
2023/07/17 11:11:25;;;;;;;6.03;1.63;;;25.70;44.10;;;;;;4988685;28;20014;-76
2023/07/17 11:13:54;;;;;;;5.55;2.05;;;26.00;44.50;;;;;;4985234;28;20030;-76
2023/07/17 11:16:23;;;;;;;3.85;1.73;;;25.90;43.30;;;;;;4984121;28;20055;-76
2023/07/17 11:18:50;;;;;;;4.40;1.60;;;25.80;44.20;;;;;;4969291;28;20579;-77
2023/07/17 11:21:19;;;;;;;3.92;1.60;;;25.60;44.80;;;;;;4991020;28;20061;-77
2023/07/17 11:23:46;;;;;;;4.38;1.80;;;25.50;44.50;;;;;;4983752;28;20043;-75
2023/07/17 11:26:13;;;;;;;5.30;1.83;;;25.60;44.10;;;;;;4978404;28;20034;-76
2023/07/17 11:28:39;;;;;;;5.03;1.83;;;25.70;44.70;;;;;;4980636;28;20102;-76
2023/07/17 11:31:17;;;;;;;5.82;1.90;;;25.70;45.10;;;;;;4977427;28;20049;-77
2023/07/17 11:33:49;;;;;;;4.13;1.90;;;25.70;44.50;;;;;;4980214;28;20069;-77
2023/07/17 11:36:15;;;;;;;4.55;2.10;;;25.70;44.20;;;;;;4989811;28;20014;-76
2023/07/17 11:38:41;;;;;;;4.10;1.92;;;26.00;46.60;;;;;;4978578;28;20035;-77
2023/07/17 11:41:06;;;;;;;5.40;1.90;;;26.10;45.50;;;;;;4989788;28;20499;-77
2023/07/17 11:43:33;;;;;;;6.93;2.72;;;26.30;44.00;;;;;;4966997;28;20061;-76
2023/07/17 11:46:07;;;;;;;4.53;2.00;;;26.30;44.20;;;;;;4979069;28;20110;-77
2023/07/17 11:48:35;;;;;;;4.30;1.85;;;26.20;44.10;;;;;;4981864;28;20030;-78
2023/07/17 11:51:05;;;;;;;4.65;1.73;;;26.10;44.30;;;;;;4987583;28;20027;-76
2023/07/17 11:53:31;;;;;;;3.90;1.58;;;26.10;42.70;;;;;;4965572;28;20209;-76
2023/07/17 11:56:00;;;;;;;5.18;1.80;;;26.20;43.40;;;;;;4985347;28;20026;-76
2023/07/17 11:58:30;;;;;;;5.15;2.00;;;26.20;44.00;;;;;;4983753;28;20485;-77
2023/07/17 12:00:56;;;;;;;3.45;1.60;;;26.20;44.10;;;;;;4984518;28;20031;-75
2023/07/17 12:03:23;;;;;;;4.57;1.60;;;26.20;44.30;;;;;;4981331;28;20501;-77
2023/07/17 12:05:49;;;;;;;4.78;1.80;;;25.90;43.20;;;;;;4982746;28;20031;-76
2023/07/17 12:08:15;;;;;;;4.50;1.83;;;26.00;43.50;;;;;;4983047;28;20421;-77
2023/07/17 12:10:41;;;;;;;4.40;1.85;;;25.90;42.80;;;;;;4966580;28;20018;-77
2023/07/17 12:13:07;;;;;;;7.15;2.15;;;25.90;43.60;;;;;;4963518;28;20045;-77
2023/07/17 12:15:33;;;;;;;5.78;2.00;;;26.00;43.50;;;;;;4980168;28;20486;-77
2023/07/17 12:17:59;;;;;;;5.95;1.90;;;25.90;42.90;;;;;;4983565;28;20030;-76
2023/07/17 12:20:26;;;;;;;3.63;1.90;;;25.70;44.50;;;;;;4982434;28;20054;-76
2023/07/17 12:22:54;;;;;;;6.13;2.22;;;25.60;43.60;;;;;;4981271;28;20038;-77
2023/07/17 12:25:20;;;;;;;3.92;1.58;;;25.60;44.10;;;;;;4982857;28;20023;-77
2023/07/17 12:27:47;;;;;;;4.55;2.03;;;25.80;44.70;;;;;;4982146;28;20379;-77
2023/07/17 12:30:19;;;;;;;4.63;1.92;;;25.80;43.90;;;;;;4984163;28;20026;-76
2023/07/17 12:32:45;;;;;;;6.22;2.10;;;25.90;42.90;;;;;;4964830;28;20409;-76
2023/07/17 12:35:11;;;;;;;6.30;1.70;;;25.90;43.60;;;;;;4964668;28;20113;-77
2023/07/17 12:37:36;;;;;;;5.35;1.85;;;26.10;43.70;;;;;;4981229;28;20075;-77
2023/07/17 12:40:03;;;;;;;3.78;1.92;;;26.20;42.90;;;;;;4982714;28;20047;-76
2023/07/17 12:42:28;;;;;;;3.53;1.67;;;26.20;42.30;;;;;;4960301;28;20050;-77
2023/07/17 12:44:55;;;;;;;5.03;1.90;;;26.00;42.50;;;;;;4965557;28;20513;-77
2023/07/17 12:47:21;;;;;;;6.78;2.13;;;25.50;43.70;;;;;;4981942;28;20025;-76
2023/07/17 12:49:48;;;;;;;6.75;2.30;;;25.50;43.80;;;;;;4978909;28;20030;-76
2023/07/17 12:52:13;;;;;;;4.68;2.10;;;25.70;44.20;;;;;;4980770;28;20109;-76
2023/07/17 12:54:39;;;;;;;5.07;2.08;;;25.80;43.00;;;;;;4983519;28;20050;-76
2023/07/17 12:57:05;;;;;;;5.68;2.10;;;26.00;43.10;;;;;;4969545;28;20022;-76
2023/07/17 12:59:31;;;;;;;2.90;1.60;;;26.30;43.50;;;;;;4981254;28;20101;-77
2023/07/17 13:01:56;;;;;;;4.30;1.90;;;26.30;41.90;;;;;;4979836;28;20026;-76
2023/07/17 13:04:23;;;;;;;5.03;2.05;;;26.10;41.90;;;;;;4980686;28;20034;-76
2023/07/17 13:06:48;;;;;;;5.50;1.90;;;26.20;42.30;;;;;;4983958;28;20085;-76
2023/07/17 13:09:14;;;;;;;4.13;1.83;;;26.10;42.60;;;;;;4983770;28;20493;-76
2023/07/17 13:11:40;;;;;;;4.80;1.90;;;26.00;43.00;;;;;;4981480;28;20049;-76
2023/07/17 13:14:08;;;;;;;4.85;1.98;;;25.90;42.00;;;;;;4983528;28;20128;-76
2023/07/17 13:16:34;;;;;;;5.57;2.00;;;26.00;44.10;;;;;;4964996;28;20018;-76
2023/07/17 13:19:01;;;;;;;3.63;2.00;;;26.20;42.60;;;;;;4981836;28;20597;-77
2023/07/17 13:21:26;;;;;;;4.10;2.05;;;26.30;42.50;;;;;;4983470;28;20026;-76
2023/07/17 13:23:54;;;;;;;6.93;2.08;;;26.40;42.40;;;;;;4986682;28;20123;-77
2023/07/17 13:26:33;;;;;;;4.30;1.85;;;26.40;41.30;;;;;;4969955;28;20030;-76
2023/07/17 13:29:00;;;;;;;4.47;2.15;;;26.30;42.50;;;;;;4983299;28;20027;-76
2023/07/17 13:31:26;;;;;;;4.50;2.17;;;26.00;41.80;;;;;;4964455;28;20042;-76
2023/07/17 13:33:51;;;;;;;5.95;2.15;;;26.20;43.30;;;;;;4985177;28;20029;-77
2023/07/17 13:36:17;;;;;;;4.57;2.20;;;26.30;42.70;;;;;;4982372;28;20026;-76
2023/07/17 13:38:43;;;;;;;5.18;2.35;;;26.30;41.60;;;;;;4988397;28;20041;-76
2023/07/17 13:41:42;;;;;;;5.15;2.00;;;26.30;42.30;;;;;;4970617;28;20023;-76
2023/07/17 13:44:09;;;;;;;5.70;2.13;;;26.00;41.20;;;;;;4984159;28;20066;-77
2023/07/17 13:46:35;;;;;;;5.07;2.13;;;26.00;43.20;;;;;;4984759;28;20030;-76
2023/07/17 13:49:01;;;;;;;7.28;2.17;;;26.00;42.80;;;;;;4987591;28;20477;-76
2023/07/17 13:51:26;;;;;;;4.93;1.80;;;25.90;41.50;;;;;;4965402;28;20019;-76
2023/07/17 13:53:53;;;;;;;6.82;2.28;;;25.80;41.20;;;;;;4986519;28;20110;-76
2023/07/17 13:56:18;;;;;;;4.63;1.90;;;25.80;42.00;;;;;;4984337;28;20446;-76
2023/07/17 13:58:44;;;;;;;5.68;1.95;;;26.10;42.20;;;;;;4986197;28;20034;-77
2023/07/17 14:01:10;;;;;;;4.80;2.10;;;26.30;41.80;;;;;;4966966;28;20039;-76
2023/07/17 14:03:36;;;;;;;6.10;2.00;;;26.40;41.80;;;;;;4980619;28;20406;-77
2023/07/17 14:06:01;;;;;;;6.65;2.60;;;26.30;41.80;;;;;;4983152;28;20520;-76
2023/07/17 14:08:27;;;;;;;5.22;2.20;;;26.20;42.60;;;;;;4985103;28;20493;-76
2023/07/17 14:10:52;;;;;;;5.05;2.03;;;26.10;41.90;;;;;;4987374;28;20037;-76
2023/07/17 14:13:18;;;;;;;7.25;2.50;;;26.10;41.80;;;;;;4983468;28;20035;-76
2023/07/17 14:15:44;;;;;;;4.45;1.88;;;26.10;41.50;;;;;;4985002;28;20035;-76
2023/07/17 14:18:09;;;;;;;5.70;2.30;;;26.00;42.20;;;;;;4986975;28;20033;-76
2023/07/17 14:20:35;;;;;;;4.45;2.03;;;25.90;41.30;;;;;;4983288;28;20030;-76
2023/07/17 14:23:00;;;;;;;5.88;2.03;;;26.10;40.80;;;;;;4987944;28;20027;-77
2023/07/17 14:25:26;;;;;;;5.32;2.10;;;26.30;41.40;;;;;;4983890;28;20027;-78
2023/07/17 14:27:52;;;;;;;4.82;1.98;;;26.70;39.50;;;;;;4979481;28;20027;-78
2023/07/17 14:30:18;;;;;;;6.35;2.88;;;26.80;40.60;;;;;;4960997;28;20035;-76
2023/07/17 14:32:44;;;;;;;5.63;2.33;;;26.90;40.50;;;;;;4978712;28;20478;-77
2023/07/17 14:35:09;;;;;;;4.45;2.42;;;26.80;40.70;;;;;;4979030;28;20106;-76
2023/07/17 14:37:35;;;;;;;5.97;1.90;;;26.50;40.30;;;;;;4978308;28;20027;-77
2023/07/17 14:40:01;;;;;;;4.80;2.33;;;26.30;40.70;;;;;;4966284;28;20023;-76
2023/07/17 14:42:26;;;;;;;4.05;1.83;;;26.10;41.70;;;;;;4982998;28;20023;-76
2023/07/17 14:44:52;;;;;;;5.78;1.88;;;26.00;41.80;;;;;;4987023;28;20027;-76
2023/07/17 14:47:18;;;;;;;4.82;2.15;;;26.00;41.00;;;;;;4984296;28;20042;-76
2023/07/17 14:49:43;;;;;;;5.63;2.00;;;26.10;41.50;;;;;;4982485;28;20027;-76
2023/07/17 14:52:09;;;;;;;4.88;2.08;;;26.20;42.20;;;;;;4982785;28;20023;-76
2023/07/17 14:54:35;;;;;;;6.63;2.00;;;26.20;41.70;;;;;;4982375;28;20018;-77
2023/07/17 14:57:00;;;;;;;4.90;1.77;;;25.90;41.70;;;;;;4985298;28;20031;-76
2023/07/17 14:59:26;;;;;;;4.93;1.85;;;25.80;43.40;;;;;;4981904;28;20034;-77
2023/07/17 15:01:52;;;;;;;6.82;2.17;;;25.80;43.50;;;;;;4982886;28;20110;-76
2023/07/17 15:04:17;;;;;;;5.93;1.98;;;25.70;41.30;;;;;;4981997;28;20022;-76
2023/07/17 15:06:43;;;;;;;5.97;2.00;;;25.50;43.20;;;;;;4981494;28;20041;-76
2023/07/17 15:09:09;;;;;;;5.43;1.77;;;25.70;43.50;;;;;;4982568;28;20030;-77
2023/07/17 15:11:34;;;;;;;4.80;2.00;;;25.70;42.70;;;;;;4965963;28;20588;-77
2023/07/17 15:14:00;;;;;;;6.25;2.15;;;25.90;42.80;;;;;;4981974;28;20023;-77
2023/07/17 15:16:26;;;;;;;6.07;1.80;;;26.20;42.90;;;;;;4967178;28;20551;-77
2023/07/17 15:18:51;;;;;;;5.03;2.45;;;26.50;42.00;;;;;;4982401;28;20034;-76
2023/07/17 15:21:17;;;;;;;5.82;1.92;;;26.60;42.70;;;;;;4980878;28;20031;-76
2023/07/17 15:23:43;;;;;;;5.45;2.08;;;26.50;41.40;;;;;;4984089;28;20071;-77
2023/07/17 15:26:08;;;;;;;4.65;2.10;;;26.30;41.00;;;;;;4982240;28;20374;-76
2023/07/17 15:28:34;;;;;;;4.35;1.67;;;26.20;40.90;;;;;;4983972;28;20425;-76
2023/07/17 15:31:00;;;;;;;4.72;1.98;;;25.90;41.80;;;;;;4983064;28;20053;-76
2023/07/17 15:33:27;;;;;;;9.32;2.92;;;25.80;41.40;;;;;;4986207;28;20061;-76
2023/07/17 15:35:53;;;;;;;4.45;2.08;;;25.80;42.70;;;;;;4982453;28;20050;-76
2023/07/17 15:38:19;;;;;;;4.80;1.92;;;25.80;42.10;;;;;;4982050;28;20031;-76
2023/07/17 15:40:44;;;;;;;4.72;1.90;;;25.80;41.60;;;;;;4982732;28;20101;-76
2023/07/17 15:43:10;;;;;;;5.82;1.95;;;25.80;41.70;;;;;;4981673;28;20110;-76
2023/07/17 15:45:36;;;;;;;6.07;1.95;;;25.90;41.20;;;;;;4981498;28;20031;-76
2023/07/17 15:48:01;;;;;;;5.40;2.05;;;25.90;42.70;;;;;;4983926;28;20029;-76
2023/07/17 15:50:27;;;;;;;4.45;2.33;;;26.20;42.30;;;;;;4965413;28;20026;-76
2023/07/17 15:52:54;;;;;;;3.67;1.75;;;26.20;42.80;;;;;;4967184;28;20019;-77
2023/07/17 15:55:21;;;;;;;4.60;1.98;;;26.20;41.90;;;;;;4981335;28;20089;-76
2023/07/17 15:57:50;;;;;;;4.68;1.67;;;26.10;41.40;;;;;;4982246;28;20485;-76
2023/07/17 16:00:16;;;;;;;4.55;2.10;;;25.90;41.90;;;;;;4983638;28;20022;-76
2023/07/17 16:02:42;;;;;;;4.30;2.05;;;25.80;41.70;;;;;;4981405;28;20026;-76
2023/07/17 16:05:07;;;;;;;4.40;1.80;;;25.70;42.50;;;;;;4987446;28;20019;-76
2023/07/17 16:07:33;;;;;;;4.90;2.13;;;25.60;43.10;;;;;;4981142;28;20030;-76
2023/07/17 16:09:58;;;;;;;3.92;1.88;;;25.40;42.90;;;;;;4982665;28;20035;-76
2023/07/17 16:12:24;;;;;;;5.18;2.00;;;25.30;42.80;;;;;;4983154;28;20146;-77
2023/07/17 16:14:51;;;;;;;5.88;1.80;;;25.20;43.40;;;;;;4965463;28;20025;-76
2023/07/17 16:17:16;;;;;;;5.25;1.90;;;25.10;43.70;;;;;;4976783;28;20033;-76
2023/07/17 16:19:43;;;;;;;3.80;1.85;;;25.00;42.50;;;;;;4976757;28;20474;-76
2023/07/17 16:22:09;;;;;;;6.25;1.80;;;25.00;42.80;;;;;;4948269;28;20129;-78
2023/07/17 16:24:35;;;;;;;4.93;1.88;;;25.20;43.00;;;;;;4971394;28;20397;-77
2023/07/17 16:27:02;;;;;;;4.65;1.73;;;25.30;42.90;;;;;;4987903;28;20035;-77
2023/07/17 16:29:28;;;;;;;5.90;1.65;;;25.30;42.00;;;;;;4976489;28;20034;-77
2023/07/17 16:31:54;;;;;;;4.57;2.00;;;25.00;42.10;;;;;;4976841;28;20078;-76
2023/07/17 16:34:19;;;;;;;5.68;2.13;;;24.80;42.80;;;;;;4980779;28;20693;-76
2023/07/17 16:36:48;;;;;;;4.28;2.03;;;24.80;43.70;;;;;;4996969;28;20057;-76
2023/07/17 16:39:14;;;;;;;4.68;1.90;;;24.70;43.80;;;;;;4995714;28;20083;-76
2023/07/17 16:41:41;;;;;;;4.22;1.88;;;24.60;44.90;;;;;;4997610;28;20465;-76
2023/07/17 16:44:06;;;;;;;5.07;1.80;;;24.60;45.70;;;;;;4990464;28;20026;-79
2023/07/17 16:46:32;;;;;;;5.80;1.65;;;24.60;46.40;;;;;;4988950;28;20130;-76
2023/07/17 16:48:58;;;;;;;3.95;1.58;;;24.60;46.40;;;;;;4985284;28;20027;-78
2023/07/17 16:51:24;;;;;;;6.90;1.70;;;24.50;47.00;;;;;;4997221;28;20508;-76
2023/07/17 16:53:49;;;;;;;6.03;1.80;;;24.50;48.10;;;;;;4998010;28;20105;-76
2023/07/17 16:56:15;;;;;;;4.95;1.65;;;24.50;48.50;;;;;;5001440;28;20030;-76
2023/07/17 16:58:41;;;;;;;4.43;1.63;;;24.50;48.50;;;;;;4979356;28;20031;-77
2023/07/17 17:01:06;;;;;;;5.10;1.70;;;24.40;48.60;;;;;;4965419;28;20023;-76
2023/07/17 17:03:32;;;;;;;6.13;1.70;;;24.30;48.70;;;;;;4988535;28;20029;-78
2023/07/17 17:05:58;;;;;;;7.53;1.92;;;24.40;49.10;;;;;;4997531;28;20034;-77
2023/07/17 17:08:24;;;;;;;4.22;1.58;;;24.30;49.00;;;;;;4981182;28;20018;-80
2023/07/17 17:10:50;;;;;;;5.03;2.10;;;24.20;48.80;;;;;;4971361;28;20034;-78
2023/07/17 17:13:16;;;;;;;8.38;3.60;;;24.20;49.50;;;;;;5000912;28;20027;-77